createdAt,value
2019-05-21T00:00:03.317Z,12.70
2019-05-21T00:02:29.543Z,12.70
2019-05-21T00:04:55.808Z,12.70
2019-05-21T00:07:22.393Z,12.70
2019-05-21T00:09:55.820Z,12.70
2019-05-21T00:12:23.172Z,12.70
2019-05-21T00:14:49.387Z,12.70
2019-05-21T00:17:15.699Z,12.70
2019-05-21T00:19:41.959Z,12.70
2019-05-21T00:22:10.875Z,12.70
2019-05-21T00:24:37.540Z,12.70
2019-05-21T00:27:03.787Z,12.70
2019-05-21T00:30:26.604Z,12.70
2019-05-21T00:33:49.231Z,12.70
2019-05-21T00:37:13.858Z,12.70
2019-05-21T00:40:36.294Z,12.70
2019-05-21T00:43:03.249Z,12.60
2019-05-21T00:45:29.545Z,12.60
2019-05-21T00:47:55.829Z,12.60
2019-05-21T00:50:22.094Z,12.60
2019-05-21T00:52:48.328Z,12.60
2019-05-21T00:55:14.592Z,12.60
2019-05-21T00:57:40.827Z,12.60
2019-05-21T01:00:07.663Z,12.60
2019-05-21T01:02:34.166Z,12.70
2019-05-21T01:05:01.574Z,12.70
2019-05-21T01:07:28.195Z,12.70
2019-05-21T01:09:54.423Z,12.70
2019-05-21T01:12:20.648Z,12.70
2019-05-21T01:14:46.906Z,12.70
2019-05-21T01:17:13.138Z,12.70
2019-05-21T01:19:39.384Z,12.60
2019-05-21T01:22:05.758Z,12.60
2019-05-21T01:24:31.993Z,12.60
2019-05-21T01:26:58.219Z,12.60
2019-05-21T01:29:24.565Z,12.60
2019-05-21T01:31:50.795Z,12.60
2019-05-21T01:34:17.323Z,12.60
2019-05-21T01:36:43.555Z,12.60
2019-05-21T01:39:09.853Z,12.60
2019-05-21T01:41:36.092Z,12.60
2019-05-21T01:44:03.103Z,12.60
2019-05-21T01:46:29.337Z,12.60
2019-05-21T01:48:55.662Z,12.60
2019-05-21T01:51:21.887Z,12.60
2019-05-21T01:53:48.378Z,12.60
2019-05-21T01:56:14.730Z,12.60
2019-05-21T01:58:40.989Z,12.60
2019-05-21T02:01:07.219Z,12.60
2019-05-21T02:03:33.466Z,12.60
2019-05-21T02:05:59.707Z,12.60
2019-05-21T02:08:25.944Z,12.60
2019-05-21T02:10:52.211Z,12.50
2019-05-21T02:13:18.469Z,12.60
2019-05-21T02:15:44.710Z,12.50
2019-05-21T02:18:10.932Z,12.50
2019-05-21T02:20:37.172Z,12.50
2019-05-21T02:23:03.412Z,12.50
2019-05-21T02:25:29.649Z,12.40
2019-05-21T02:27:55.879Z,12.40
2019-05-21T02:30:22.265Z,12.40
2019-05-21T02:32:48.454Z,12.40
2019-05-21T02:35:15.194Z,12.40
2019-05-21T02:37:41.455Z,12.40
2019-05-21T02:40:08.864Z,12.40
2019-05-21T02:42:35.438Z,12.30
2019-05-21T02:45:02.794Z,12.30
2019-05-21T02:47:29.155Z,12.30
2019-05-21T02:49:55.395Z,12.20
2019-05-21T02:52:21.627Z,12.20
2019-05-21T02:54:47.861Z,12.20
2019-05-21T02:57:14.185Z,12.20
2019-05-21T02:59:42.217Z,12.20
2019-05-21T03:02:27.286Z,12.20
2019-05-21T03:04:53.544Z,12.20
2019-05-21T03:07:19.899Z,12.20
2019-05-21T03:09:47.352Z,12.20
2019-05-21T03:12:14.958Z,12.20
2019-05-21T03:14:41.188Z,12.10
2019-05-21T03:17:07.827Z,12.10
2019-05-21T03:19:34.046Z,12.10
2019-05-21T03:22:00.309Z,12.10
2019-05-21T03:24:26.533Z,12.10
2019-05-21T03:26:52.776Z,12.00
2019-05-21T03:29:18.996Z,12.00
2019-05-21T03:31:45.226Z,12.00
2019-05-21T03:34:11.441Z,12.00
2019-05-21T03:36:37.658Z,12.00
2019-05-21T03:39:04.452Z,12.00
2019-05-21T03:41:30.770Z,12.00
2019-05-21T03:43:57.048Z,12.00
2019-05-21T03:46:23.278Z,12.00
2019-05-21T03:48:49.535Z,12.00
2019-05-21T03:51:16.742Z,11.90
2019-05-21T03:53:42.984Z,11.90
2019-05-21T03:56:09.251Z,11.90
2019-05-21T03:58:35.490Z,11.90
2019-05-21T04:01:02.217Z,11.90
2019-05-21T04:03:28.452Z,11.80
2019-05-21T04:05:54.679Z,11.80
2019-05-21T04:08:21.007Z,11.80
2019-05-21T04:10:47.265Z,11.80
2019-05-21T04:13:13.508Z,11.90
2019-05-21T04:15:58.823Z,11.90
2019-05-21T04:18:26.946Z,11.80
2019-05-21T04:20:53.369Z,11.80
2019-05-21T04:23:19.593Z,11.90
2019-05-21T04:25:45.810Z,11.90
2019-05-21T04:28:12.059Z,11.90
2019-05-21T04:30:38.330Z,11.90
2019-05-21T04:33:04.818Z,11.90
2019-05-21T04:35:37.163Z,11.90
2019-05-21T04:38:09.754Z,11.90
2019-05-21T04:40:35.987Z,11.90
2019-05-21T04:43:02.725Z,11.80
2019-05-21T04:45:29.481Z,11.80
2019-05-21T04:47:55.741Z,11.80
2019-05-21T04:50:21.993Z,11.70
2019-05-21T04:52:48.213Z,11.70
2019-05-21T04:55:14.691Z,11.80
2019-05-21T04:57:40.936Z,11.80
2019-05-21T05:00:07.773Z,11.70
2019-05-21T05:02:34.014Z,11.80
2019-05-21T05:05:00.380Z,11.80
2019-05-21T05:07:28.837Z,11.70
2019-05-21T05:09:55.481Z,11.70
2019-05-21T05:12:21.708Z,11.70
2019-05-21T05:14:48.237Z,11.70
2019-05-21T05:17:18.074Z,11.70
2019-05-21T05:19:44.702Z,11.70
2019-05-21T05:22:10.962Z,11.70
2019-05-21T05:24:42.139Z,11.70
2019-05-21T05:27:10.963Z,11.70
2019-05-21T05:29:41.035Z,11.70
2019-05-21T05:32:07.498Z,11.70
2019-05-21T05:34:33.736Z,11.70
2019-05-21T05:36:59.998Z,11.70
2019-05-21T05:39:26.281Z,11.70
2019-05-21T05:41:52.540Z,11.80
2019-05-21T05:44:19.041Z,11.70
2019-05-21T05:46:45.292Z,11.70
2019-05-21T05:49:16.356Z,11.80
2019-05-21T05:51:42.598Z,11.80
2019-05-21T05:54:09.129Z,11.80
2019-05-21T05:56:44.899Z,11.80
2019-05-21T05:59:14.442Z,11.80
2019-05-21T06:01:41.074Z,11.80
2019-05-21T06:04:07.312Z,11.90
2019-05-21T06:06:33.653Z,11.90
2019-05-21T06:09:11.071Z,11.90
2019-05-21T06:11:37.764Z,11.90
2019-05-21T06:14:09.634Z,11.90
2019-05-21T06:16:36.520Z,12.00
2019-05-21T06:19:03.137Z,12.00
2019-05-21T06:21:29.476Z,11.90
2019-05-21T06:23:55.699Z,12.00
2019-05-21T06:26:22.682Z,12.00
2019-05-21T06:28:49.214Z,12.00
2019-05-21T06:31:15.609Z,12.00
2019-05-21T06:33:41.832Z,12.00
2019-05-21T06:36:08.605Z,12.10
2019-05-21T06:38:36.893Z,12.10
2019-05-21T06:41:03.348Z,12.20
2019-05-21T06:43:29.605Z,12.20
2019-05-21T06:46:03.587Z,12.20
2019-05-21T06:48:31.628Z,12.20
2019-05-21T06:50:57.944Z,12.20
2019-05-21T06:53:24.179Z,12.30
2019-05-21T06:55:50.445Z,12.30
2019-05-21T06:58:25.840Z,12.30
2019-05-21T07:00:52.542Z,12.30
2019-05-21T07:03:19.351Z,12.30
2019-05-21T07:05:58.273Z,12.30
2019-05-21T07:08:13.862Z,12.30
2019-05-21T07:10:40.239Z,12.20
2019-05-21T07:13:06.512Z,12.20
2019-05-21T07:15:32.735Z,12.20
2019-05-21T07:17:59.138Z,12.10
2019-05-21T07:20:25.524Z,12.20
2019-05-21T07:22:51.892Z,12.20
2019-05-21T07:25:18.516Z,12.10
2019-05-21T07:27:44.744Z,12.10
2019-05-21T07:30:11.271Z,12.10
2019-05-21T07:32:37.594Z,12.10
2019-05-21T07:35:06.446Z,12.10
2019-05-21T07:37:33.027Z,12.10
2019-05-21T07:39:59.284Z,12.20
2019-05-21T07:42:25.516Z,12.20
2019-05-21T07:44:51.789Z,12.20
2019-05-21T07:47:18.003Z,12.20
2019-05-21T07:49:44.243Z,12.20
2019-05-21T07:52:10.482Z,12.20
2019-05-21T07:54:36.758Z,12.20
2019-05-21T07:57:03.141Z,12.20
2019-05-21T07:59:29.354Z,12.10
2019-05-21T08:01:55.619Z,12.10
2019-05-21T08:04:21.867Z,12.10
2019-05-21T08:06:48.107Z,12.10
2019-05-21T08:09:15.144Z,12.10
2019-05-21T08:11:41.802Z,12.10
2019-05-21T08:14:15.241Z,12.20
2019-05-21T08:16:42.134Z,12.20
2019-05-21T08:19:08.464Z,12.20
2019-05-21T08:21:34.693Z,12.10
2019-05-21T08:24:00.910Z,12.20
2019-05-21T08:26:27.160Z,12.20
2019-05-21T08:28:53.467Z,12.20
2019-05-21T08:31:19.731Z,12.20
2019-05-21T08:33:45.977Z,12.20
2019-05-21T08:36:12.272Z,12.20
2019-05-21T08:38:38.525Z,12.20
2019-05-21T08:41:04.942Z,12.30
2019-05-21T08:43:40.956Z,12.30
2019-05-21T08:46:08.905Z,12.30
2019-05-21T08:48:35.153Z,12.30
2019-05-21T08:51:01.532Z,12.30
2019-05-21T08:53:27.798Z,12.30
2019-05-21T08:55:54.042Z,12.20
2019-05-21T08:58:20.484Z,12.20
2019-05-21T09:00:46.902Z,12.20
2019-05-21T09:03:17.464Z,12.20
2019-05-21T09:05:55.442Z,12.20
2019-05-21T09:08:23.311Z,12.20
2019-05-21T09:10:49.602Z,12.20
2019-05-21T09:13:17.957Z,12.30
2019-05-21T09:15:44.314Z,12.30
2019-05-21T09:18:10.659Z,12.30
2019-05-21T09:20:38.304Z,12.40
2019-05-21T09:23:04.754Z,12.40
2019-05-21T09:25:30.991Z,12.50
2019-05-21T09:27:57.331Z,12.50
2019-05-21T09:30:23.655Z,12.60
2019-05-21T09:32:49.918Z,12.60
2019-05-21T09:35:16.929Z,12.70
2019-05-21T09:37:43.291Z,12.80
2019-05-21T09:40:11.966Z,12.90
2019-05-21T09:42:38.284Z,12.90
2019-05-21T09:45:07.396Z,13.00
2019-05-21T09:47:34.084Z,13.00
2019-05-21T09:50:00.635Z,13.10
2019-05-21T09:52:26.986Z,13.20
2019-05-21T09:54:53.291Z,13.30
2019-05-21T09:57:25.006Z,13.40
2019-05-21T09:59:53.157Z,13.50
2019-05-21T10:02:27.062Z,13.60
2019-05-21T10:04:59.643Z,13.70
2019-05-21T10:07:39.245Z,13.70
2019-05-21T10:09:55.222Z,13.80
2019-05-21T10:12:25.888Z,13.90
2019-05-21T10:14:52.440Z,13.90
2019-05-21T10:17:19.341Z,14.00
2019-05-21T10:19:46.247Z,14.00
2019-05-21T10:22:12.538Z,14.10
2019-05-21T10:24:38.852Z,14.20
2019-05-21T10:27:05.253Z,14.20
2019-05-21T10:29:31.503Z,14.20
2019-05-21T10:31:57.872Z,14.30
2019-05-21T10:34:40.725Z,14.30
2019-05-21T10:37:07.875Z,14.30
2019-05-21T10:39:34.228Z,14.40
2019-05-21T10:42:00.486Z,14.50
2019-05-21T10:44:26.758Z,14.50
2019-05-21T10:46:53.320Z,14.50
2019-05-21T10:49:19.532Z,14.50
2019-05-21T10:51:46.659Z,14.60
2019-05-21T10:54:15.124Z,14.60
2019-05-21T10:56:47.908Z,14.70
2019-05-21T10:59:11.343Z,14.70
2019-05-21T11:01:59.013Z,14.80
2019-05-21T11:04:28.628Z,14.90
2019-05-21T11:06:54.879Z,14.90
2019-05-21T11:09:22.384Z,14.90
2019-05-21T11:11:49.176Z,15.00
2019-05-21T11:14:15.635Z,15.00
2019-05-21T11:16:45.361Z,15.00
2019-05-21T11:19:12.305Z,15.10
2019-05-21T11:21:38.536Z,15.10
2019-05-21T11:24:04.919Z,15.20
2019-05-21T11:26:31.128Z,15.20
2019-05-21T11:28:57.355Z,15.20
2019-05-21T11:31:23.570Z,15.20
2019-05-21T11:33:50.061Z,15.30
2019-05-21T11:36:16.284Z,15.30
2019-05-21T11:38:42.540Z,15.30
2019-05-21T11:41:08.795Z,15.30
2019-05-21T11:43:35.004Z,15.20
2019-05-21T11:46:03.096Z,15.20
2019-05-21T11:48:29.472Z,15.20
2019-05-21T11:50:55.736Z,15.30
2019-05-21T11:53:21.974Z,15.30
2019-05-21T11:55:48.211Z,15.30
2019-05-21T11:58:14.452Z,15.20
2019-05-21T12:00:40.885Z,15.20
2019-05-21T12:03:07.135Z,15.20
2019-05-21T12:05:33.390Z,15.20
2019-05-21T12:07:59.679Z,15.20
2019-05-21T12:10:34.487Z,15.20
2019-05-21T12:13:01.927Z,15.10
2019-05-21T12:15:28.251Z,15.10
2019-05-21T12:17:54.554Z,15.00
2019-05-21T12:20:35.260Z,15.00
2019-05-21T12:22:49.834Z,15.00
2019-05-21T12:25:16.263Z,15.00
2019-05-21T12:27:42.494Z,14.90
2019-05-21T12:30:09.439Z,14.90
2019-05-21T12:32:35.889Z,14.90
2019-05-21T12:35:03.525Z,14.80
2019-05-21T12:37:29.774Z,14.70
2019-05-21T12:40:00.932Z,14.70
2019-05-21T12:42:27.943Z,14.60
2019-05-21T12:44:54.172Z,14.60
2019-05-21T12:47:20.495Z,14.50
2019-05-21T12:49:46.781Z,14.40
2019-05-21T12:52:13.031Z,14.40
2019-05-21T12:54:39.274Z,14.40
2019-05-21T12:57:05.504Z,14.40
2019-05-21T12:59:31.797Z,14.40
2019-05-21T13:01:58.067Z,14.40
2019-05-21T13:04:24.299Z,14.30
2019-05-21T13:06:51.009Z,14.30
2019-05-21T13:09:31.476Z,14.30
2019-05-21T13:11:45.441Z,14.30
2019-05-21T13:14:16.134Z,14.30
2019-05-21T13:16:39.855Z,14.20
2019-05-21T13:19:11.024Z,14.10
2019-05-21T13:21:34.881Z,14.10
2019-05-21T13:24:01.066Z,14.00
2019-05-21T13:26:27.436Z,13.90
2019-05-21T13:29:00.847Z,13.90
2019-05-21T13:31:34.531Z,13.80
2019-05-21T13:34:02.016Z,13.80
2019-05-21T13:36:28.293Z,13.80
2019-05-21T13:39:04.891Z,13.70
2019-05-21T13:41:31.651Z,13.60
2019-05-21T13:43:57.900Z,13.60
2019-05-21T13:46:24.478Z,13.50
2019-05-21T13:48:50.779Z,13.40
2019-05-21T13:51:17.260Z,13.40
2019-05-21T13:53:43.541Z,13.30
2019-05-21T13:56:09.881Z,13.30
2019-05-21T13:58:36.130Z,13.30
2019-05-21T14:01:03.369Z,13.20
2019-05-21T14:03:29.711Z,13.20
2019-05-21T14:05:56.062Z,13.20
2019-05-21T14:08:22.342Z,13.10
2019-05-21T14:10:48.592Z,13.10
2019-05-21T14:13:15.026Z,13.00
2019-05-21T14:15:41.812Z,13.00
2019-05-21T14:18:08.147Z,13.00
2019-05-21T14:20:34.485Z,13.00
2019-05-21T14:23:00.787Z,13.00
2019-05-21T14:25:27.260Z,13.00
2019-05-21T14:27:55.382Z,13.00
2019-05-21T14:30:21.919Z,13.00
2019-05-21T14:32:48.210Z,13.00
2019-05-21T14:35:14.535Z,13.00
2019-05-21T14:37:45.130Z,13.00
2019-05-21T14:40:28.476Z,12.90
2019-05-21T14:42:56.923Z,12.90
2019-05-21T14:45:09.526Z,12.80
2019-05-21T14:47:35.776Z,12.80
2019-05-21T14:50:05.612Z,12.80
2019-05-21T14:52:31.940Z,12.80
2019-05-21T14:54:58.202Z,12.70
2019-05-21T14:57:24.435Z,12.70
2019-05-21T14:59:50.783Z,12.70
2019-05-21T15:02:22.474Z,12.70
2019-05-21T15:04:48.925Z,12.70
2019-05-21T15:07:15.268Z,12.70
2019-05-21T15:09:41.513Z,12.70
2019-05-21T15:12:07.733Z,12.60
2019-05-21T15:14:33.966Z,12.60
2019-05-21T15:17:00.241Z,12.60
2019-05-21T15:19:41.866Z,12.60
2019-05-21T15:22:08.259Z,12.60
2019-05-21T15:24:34.530Z,12.60
2019-05-21T15:27:00.808Z,12.60
2019-05-21T15:29:27.059Z,12.50
2019-05-21T15:31:53.287Z,12.50
2019-05-21T15:34:19.558Z,12.50
2019-05-21T15:36:45.785Z,12.50
2019-05-21T15:39:12.014Z,12.50
2019-05-21T15:41:38.248Z,12.50
2019-05-21T15:44:04.569Z,12.50
2019-05-21T15:46:47.177Z,12.50
2019-05-21T15:48:59.954Z,12.50
2019-05-21T15:51:26.232Z,12.50
2019-05-21T15:53:52.471Z,12.50
2019-05-21T15:56:19.082Z,12.40
2019-05-21T15:58:45.321Z,12.40
2019-05-21T16:01:12.426Z,12.40
2019-05-21T16:03:38.759Z,12.40
2019-05-21T16:06:05.073Z,12.40
2019-05-21T16:08:31.413Z,12.40
2019-05-21T16:10:57.601Z,12.40
2019-05-21T16:13:23.964Z,12.40
2019-05-21T16:15:50.181Z,12.40
2019-05-21T16:18:16.411Z,12.40
2019-05-21T16:20:43.021Z,12.30
2019-05-21T16:23:09.281Z,12.30
2019-05-21T16:25:36.505Z,12.30
2019-05-21T16:28:02.827Z,12.30
2019-05-21T16:30:29.066Z,12.20
2019-05-21T16:32:55.515Z,12.20
2019-05-21T16:35:22.110Z,12.20
2019-05-21T16:37:48.290Z,12.10
2019-05-21T16:40:15.343Z,12.10
2019-05-21T16:42:41.618Z,12.10
2019-05-21T16:45:09.065Z,12.10
2019-05-21T16:47:45.879Z,12.10
2019-05-21T16:50:06.389Z,12.10
2019-05-21T16:52:32.635Z,12.10
2019-05-21T16:54:58.878Z,12.10
2019-05-21T16:57:25.139Z,12.10
2019-05-21T16:59:51.575Z,12.10
2019-05-21T17:02:18.127Z,12.10
2019-05-21T17:04:44.341Z,12.10
2019-05-21T17:07:10.721Z,12.10
2019-05-21T17:09:36.989Z,12.10
2019-05-21T17:12:04.121Z,12.10
2019-05-21T17:14:30.347Z,12.10
2019-05-21T17:16:56.611Z,12.10
2019-05-21T17:19:23.207Z,12.10
2019-05-21T17:21:49.528Z,12.10
2019-05-21T17:24:15.774Z,12.10
2019-05-21T17:26:42.955Z,12.10
2019-05-21T17:29:09.586Z,12.10
2019-05-21T17:31:35.917Z,12.10
2019-05-21T17:34:02.404Z,12.10
2019-05-21T17:36:28.648Z,12.10
2019-05-21T17:38:54.925Z,12.10
2019-05-21T17:41:21.193Z,12.10
2019-05-21T17:43:47.454Z,12.10
2019-05-21T17:46:13.675Z,12.10
2019-05-21T17:48:39.903Z,12.10
2019-05-21T17:51:09.060Z,12.10
2019-05-21T17:53:34.323Z,12.10
2019-05-21T17:56:01.276Z,12.10
2019-05-21T17:58:27.622Z,12.10
2019-05-21T18:00:55.852Z,12.10
2019-05-21T18:03:22.486Z,12.10
2019-05-21T18:05:49.442Z,12.10
2019-05-21T18:08:41.295Z,12.10
2019-05-21T18:11:08.095Z,12.10
2019-05-21T18:13:35.171Z,12.10
2019-05-21T18:16:01.806Z,12.10
2019-05-21T18:18:29.055Z,12.10
2019-05-21T18:24:50.244Z,12.10
2019-05-21T18:27:17.030Z,12.10
2019-05-21T18:29:43.971Z,12.00
2019-05-21T18:32:11.472Z,12.10
2019-05-21T18:34:39.277Z,12.10
2019-05-21T18:37:06.571Z,12.10
2019-05-21T18:39:35.791Z,12.00
2019-05-21T18:42:04.136Z,12.10
2019-05-21T18:44:32.533Z,12.10
2019-05-21T18:47:05.667Z,12.10
2019-05-21T18:49:33.575Z,12.10
2019-05-21T18:52:01.452Z,12.10
2019-05-21T18:54:29.418Z,12.10
2019-05-21T18:56:57.185Z,12.10
2019-05-21T18:59:25.168Z,12.10
2019-05-21T19:02:45.685Z,12.10
2019-05-21T19:05:14.462Z,12.10
2019-05-21T19:07:42.454Z,12.10
2019-05-21T19:10:13.607Z,12.10
2019-05-21T19:12:41.687Z,12.10
2019-05-21T19:15:10.401Z,12.10
2019-05-21T19:17:38.654Z,12.10
2019-05-21T19:20:10.731Z,12.10
2019-05-21T19:22:38.680Z,12.10
2019-05-21T19:25:08.003Z,12.10
2019-05-21T19:27:35.868Z,12.10
2019-05-21T19:30:06.274Z,12.10
2019-05-21T19:32:36.034Z,12.10
2019-05-21T19:35:06.166Z,12.10
2019-05-21T19:37:35.521Z,12.10
2019-05-21T19:40:06.026Z,12.10
2019-05-21T19:42:34.068Z,12.00
2019-05-21T19:45:02.537Z,12.10
2019-05-21T19:47:30.469Z,12.10
2019-05-21T19:49:59.061Z,12.00
2019-05-21T19:52:27.609Z,12.00
2019-05-21T19:54:55.576Z,12.00
2019-05-21T19:57:25.334Z,12.00
2019-05-21T19:59:53.672Z,12.00
2019-05-21T20:02:22.331Z,12.00
2019-05-21T20:04:50.803Z,12.00
2019-05-21T20:07:20.790Z,12.00
2019-05-21T20:09:51.120Z,12.00
2019-05-21T20:12:19.048Z,12.00
2019-05-21T20:14:46.702Z,12.00
2019-05-21T20:17:15.335Z,12.00
2019-05-21T20:19:45.996Z,12.00
2019-05-21T20:22:15.203Z,12.00
2019-05-21T20:24:42.674Z,11.90
2019-05-21T20:27:11.540Z,12.00
2019-05-21T20:29:38.274Z,11.90
2019-05-21T20:32:06.443Z,12.00
2019-05-21T20:34:33.138Z,11.90
2019-05-21T20:36:59.887Z,12.00
2019-05-21T20:39:26.352Z,12.00
2019-05-21T20:41:53.120Z,12.00
2019-05-21T20:44:19.421Z,12.00
2019-05-21T20:46:46.084Z,12.00
2019-05-21T20:49:12.534Z,12.00
2019-05-21T20:51:39.904Z,12.00
2019-05-21T20:54:07.521Z,12.00
2019-05-21T20:56:34.208Z,12.00
2019-05-21T20:59:00.545Z,12.00
2019-05-21T21:01:27.051Z,12.00
2019-05-21T21:03:53.263Z,12.00
2019-05-21T21:06:34.279Z,12.00
2019-05-21T21:08:48.214Z,12.00
2019-05-21T21:11:14.729Z,12.00
2019-05-21T21:13:42.051Z,12.00
2019-05-21T21:16:09.779Z,12.00
2019-05-21T21:18:37.275Z,12.00
2019-05-21T21:21:04.368Z,12.00
2019-05-21T21:23:32.185Z,12.00
2019-05-21T21:26:00.299Z,12.00
2019-05-21T21:28:27.745Z,12.00
2019-05-21T21:30:57.545Z,12.00
2019-05-21T21:33:24.153Z,12.00
2019-05-21T21:35:50.545Z,12.00
2019-05-21T21:38:18.707Z,11.90
2019-05-21T21:40:45.156Z,11.90
2019-05-21T21:43:11.823Z,11.90
2019-05-21T21:45:38.060Z,11.90
2019-05-21T21:48:05.076Z,11.90
2019-05-21T21:50:32.704Z,11.90
2019-05-21T21:52:58.981Z,11.90
2019-05-21T21:55:25.647Z,11.90
2019-05-21T21:57:51.894Z,11.90
2019-05-21T22:00:40.335Z,11.90
2019-05-21T22:03:10.451Z,11.90
2019-05-21T22:05:37.069Z,11.90
2019-05-21T22:08:04.280Z,11.90
2019-05-21T22:10:30.916Z,11.90
2019-05-21T22:12:57.687Z,11.90
2019-05-21T22:15:24.019Z,11.90
2019-05-21T22:17:50.500Z,11.90
2019-05-21T22:20:17.915Z,11.90
2019-05-21T22:22:44.220Z,11.90
2019-05-21T22:25:11.726Z,11.90
2019-05-21T22:27:38.947Z,11.90
2019-05-21T22:30:06.304Z,11.90
2019-05-21T22:32:32.779Z,11.90
2019-05-21T22:34:59.254Z,11.90
2019-05-21T22:37:25.697Z,11.90
2019-05-21T22:39:52.010Z,11.90
2019-05-21T22:42:18.583Z,11.90
2019-05-21T22:44:46.222Z,11.80
2019-05-21T22:47:13.498Z,11.90
2019-05-21T22:49:39.843Z,11.80
2019-05-21T22:52:06.172Z,11.80
2019-05-21T22:54:32.406Z,11.90
2019-05-21T22:56:58.855Z,11.90
2019-05-21T22:59:25.308Z,11.90
2019-05-21T23:01:53.862Z,11.90
2019-05-21T23:04:20.498Z,11.90
2019-05-21T23:06:46.819Z,11.90
2019-05-21T23:09:13.078Z,11.90
2019-05-21T23:11:39.338Z,11.80
2019-05-21T23:14:05.842Z,11.80
2019-05-21T23:16:32.796Z,11.80
2019-05-21T23:18:59.247Z,11.80
2019-05-21T23:21:25.802Z,11.80
2019-05-21T23:23:52.871Z,11.80
2019-05-21T23:26:19.776Z,11.80
2019-05-21T23:28:46.436Z,11.80
2019-05-21T23:31:14.174Z,11.80
2019-05-21T23:33:41.536Z,11.80
2019-05-21T23:36:08.080Z,11.80
2019-05-21T23:38:35.809Z,11.70
2019-05-21T23:41:03.929Z,11.70
2019-05-21T23:43:31.075Z,11.70
2019-05-21T23:45:57.812Z,11.70
2019-05-21T23:48:24.259Z,11.70
2019-05-21T23:50:51.353Z,11.70
2019-05-21T23:53:17.796Z,11.70
